createdAt,value
2017-10-08T00:01:57.945Z,64
2017-10-08T00:13:54.605Z,64
2017-10-08T00:25:51.347Z,64
2017-10-08T00:37:47.889Z,64
2017-10-08T00:49:44.291Z,64
2017-10-08T01:01:39.927Z,63
2017-10-08T01:13:36.407Z,64
2017-10-08T01:25:33.121Z,64
2017-10-08T01:37:31.390Z,64
2017-10-08T01:49:27.982Z,64
2017-10-08T02:01:24.450Z,64
2017-10-08T02:13:20.722Z,64
2017-10-08T02:25:15.844Z,61
2017-10-08T02:37:12.641Z,61
2017-10-08T02:49:08.992Z,64
2017-10-08T03:01:05.264Z,64
2017-10-08T03:13:01.506Z,63
2017-10-08T03:24:57.846Z,61
2017-10-08T03:36:54.344Z,64
2017-10-08T03:48:50.439Z,61
2017-10-08T04:00:46.666Z,63
2017-10-08T04:12:42.984Z,62
2017-10-08T04:24:41.071Z,63
2017-10-08T04:36:37.685Z,63
2017-10-08T04:48:34.007Z,63
2017-10-08T05:00:30.467Z,61
2017-10-08T05:12:26.967Z,61
2017-10-08T05:24:23.229Z,61
2017-10-08T05:36:20.040Z,62
2017-10-08T05:48:16.627Z,62
2017-10-08T06:00:12.966Z,61
2017-10-08T06:12:09.549Z,59
2017-10-08T06:24:06.506Z,62
2017-10-08T06:36:03.443Z,62
2017-10-08T06:48:00.104Z,61
2017-10-08T06:59:56.611Z,61
2017-10-08T07:11:52.875Z,61
2017-10-08T07:23:50.166Z,61
2017-10-08T07:35:47.064Z,61
2017-10-08T07:47:43.989Z,61
2017-10-08T07:59:41.688Z,61
2017-10-08T08:11:38.749Z,61
2017-10-08T08:23:35.146Z,61
2017-10-08T08:35:32.279Z,61
2017-10-08T08:47:27.850Z,61
2017-10-08T08:59:25.285Z,58
2017-10-08T09:11:23.525Z,59
2017-10-08T09:23:21.621Z,60
2017-10-08T09:35:19.686Z,59
2017-10-08T09:47:18.269Z,60
2017-10-08T09:59:18.385Z,57
2017-10-08T10:11:17.682Z,60
2017-10-08T10:23:19.468Z,58
2017-10-08T10:35:20.345Z,57
2017-10-08T10:47:18.570Z,60
2017-10-08T10:59:17.386Z,57
2017-10-08T11:11:17.184Z,57
2017-10-08T11:23:17.506Z,59
2017-10-08T11:35:22.886Z,58
2017-10-08T11:47:23.510Z,59
2017-10-08T11:59:22.546Z,59
2017-10-08T12:11:23.783Z,58
2017-10-08T12:23:23.623Z,59
2017-10-08T12:35:22.642Z,59
2017-10-08T12:47:21.466Z,59
2017-10-08T12:59:19.670Z,59
2017-10-08T13:11:19.084Z,58
2017-10-08T13:23:17.707Z,58
2017-10-08T13:35:17.621Z,56
2017-10-08T13:47:15.487Z,57
2017-10-08T13:59:22.685Z,56
2017-10-08T14:11:21.448Z,58
2017-10-08T14:23:19.627Z,58
2017-10-08T14:35:18.583Z,57
2017-10-08T14:47:15.648Z,58
2017-10-08T14:59:13.891Z,58
2017-10-08T15:11:11.069Z,57
2017-10-08T15:23:08.807Z,57
2017-10-08T15:35:12.032Z,55
2017-10-08T15:47:12.508Z,53
2017-10-08T15:59:12.689Z,57
2017-10-08T16:11:15.271Z,55
2017-10-08T16:23:16.524Z,55
2017-10-08T16:35:17.225Z,56
2017-10-08T16:47:17.527Z,56
2017-10-08T16:59:20.591Z,56
2017-10-08T17:11:18.431Z,56
2017-10-08T17:23:20.845Z,55
2017-10-08T17:35:21.887Z,53
2017-10-08T17:47:18.889Z,56
2017-10-08T17:59:16.742Z,56
2017-10-08T18:11:13.686Z,55
2017-10-08T18:23:10.286Z,54
2017-10-08T18:35:07.508Z,55
2017-10-08T18:47:03.762Z,54
2017-10-08T18:59:00.346Z,52
2017-10-08T19:10:59.087Z,53
2017-10-08T19:22:57.273Z,55
2017-10-08T19:34:53.125Z,52
2017-10-08T19:46:51.090Z,53
2017-10-08T19:58:49.365Z,52
2017-10-08T20:10:46.920Z,55
2017-10-08T20:22:44.126Z,55
2017-10-08T20:34:40.484Z,52
2017-10-08T20:46:36.903Z,54
2017-10-08T20:58:33.325Z,54
2017-10-08T21:10:30.327Z,53
2017-10-08T21:22:26.684Z,54
2017-10-08T21:34:23.044Z,54
2017-10-08T21:46:19.544Z,54
2017-10-08T21:58:13.702Z,50
2017-10-08T22:10:09.307Z,53
2017-10-08T22:22:04.788Z,52
2017-10-08T22:34:00.325Z,53
2017-10-08T22:45:55.507Z,52
2017-10-08T22:57:51.063Z,51
2017-10-08T23:09:47.126Z,53
2017-10-08T23:21:43.672Z,52
2017-10-08T23:33:39.190Z,52
2017-10-08T23:45:34.767Z,52
2017-10-08T23:57:30.368Z,50
